sensor_id;sensor_type;location;lat;lon;timestamp;pressure;altitude;pressure_sealevel;temperature;humidity
25130;BME280;13308;50.860;13.664;2023-03-23T06:34:47;95901.31;;;14.01;64.16
25130;BME280;13308;50.860;13.664;2023-03-23T06:37:31;95901.19;;;14.13;64.01
25130;BME280;13308;50.860;13.664;2023-03-23T06:40:20;95914.75;;;14.11;64.69
25130;BME280;13308;50.860;13.664;2023-03-23T06:42:56;95915.03;;;14.13;64.19
25130;BME280;13308;50.860;13.664;2023-03-23T06:45:41;95922.91;;;14.06;64.30
25130;BME280;13308;50.860;13.664;2023-03-23T06:48:27;95924.28;;;13.92;65.54
25130;BME280;13308;50.860;13.664;2023-03-23T06:50:53;95923.06;;;13.93;65.37
25130;BME280;13308;50.860;13.664;2023-03-23T06:53:20;95929.38;;;13.94;65.46
25130;BME280;13308;50.860;13.664;2023-03-23T06:55:47;95934.31;;;13.90;65.94
25130;BME280;13308;50.860;13.664;2023-03-23T06:58:12;95931.69;;;13.95;65.27
25130;BME280;13308;50.860;13.664;2023-03-23T07:00:38;95927.38;;;13.94;65.32
25130;BME280;13308;50.860;13.664;2023-03-23T07:03:04;95938.00;;;13.96;65.96
25130;BME280;13308;50.860;13.664;2023-03-23T07:05:35;95936.91;;;14.02;64.72
25130;BME280;13308;50.860;13.664;2023-03-23T07:08:04;95942.00;;;14.04;66.06
25130;BME280;13308;50.860;13.664;2023-03-23T07:10:34;95947.09;;;14.14;64.96
25130;BME280;13308;50.860;13.664;2023-03-23T07:13:00;95951.72;;;14.26;64.42
25130;BME280;13308;50.860;13.664;2023-03-23T07:15:30;95947.44;;;14.34;63.93
25130;BME280;13308;50.860;13.664;2023-03-23T07:17:56;95946.50;;;14.37;64.76
25130;BME280;13308;50.860;13.664;2023-03-23T07:20:29;95948.47;;;14.46;63.82
25130;BME280;13308;50.860;13.664;2023-03-23T07:22:54;95955.72;;;14.43;63.55
25130;BME280;13308;50.860;13.664;2023-03-23T07:25:35;95952.00;;;14.55;63.80
25130;BME280;13308;50.860;13.664;2023-03-23T07:28:02;95956.91;;;14.69;63.13
25130;BME280;13308;50.860;13.664;2023-03-23T07:30:28;95956.28;;;14.83;63.42
25130;BME280;13308;50.860;13.664;2023-03-23T07:32:57;95966.59;;;14.83;63.18
25130;BME280;13308;50.860;13.664;2023-03-23T07:35:24;95964.28;;;14.81;62.82
25130;BME280;13308;50.860;13.664;2023-03-23T07:37:57;95954.41;;;14.80;63.78
25130;BME280;13308;50.860;13.664;2023-03-23T07:40:24;95955.38;;;14.77;64.26
25130;BME280;13308;50.860;13.664;2023-03-23T07:42:54;95958.47;;;14.70;64.30
25130;BME280;13308;50.860;13.664;2023-03-23T07:45:29;95963.41;;;14.66;63.36
25130;BME280;13308;50.860;13.664;2023-03-23T07:47:56;95956.00;;;14.72;63.13
25130;BME280;13308;50.860;13.664;2023-03-23T07:50:22;95962.78;;;14.71;63.63
25130;BME280;13308;50.860;13.664;2023-03-23T07:52:56;95979.09;;;14.78;63.69
25130;BME280;13308;50.860;13.664;2023-03-23T07:55:24;95962.13;;;14.85;62.81
25130;BME280;13308;50.860;13.664;2023-03-23T07:58:14;95970.13;;;14.92;62.74
25130;BME280;13308;50.860;13.664;2023-03-23T08:00:46;95971.06;;;14.89;63.36
25130;BME280;13308;50.860;13.664;2023-03-23T08:03:11;95968.00;;;14.78;63.92
25130;BME280;13308;50.860;13.664;2023-03-23T08:05:52;95973.53;;;14.87;64.00
25130;BME280;13308;50.860;13.664;2023-03-23T08:08:36;95975.72;;;14.74;64.40
25130;BME280;13308;50.860;13.664;2023-03-23T08:11:22;95964.00;;;14.79;63.19
25130;BME280;13308;50.860;13.664;2023-03-23T08:14:09;95983.75;;;14.72;63.77
25130;BME280;13308;50.860;13.664;2023-03-23T08:16:58;95968.63;;;14.73;63.70
25130;BME280;13308;50.860;13.664;2023-03-23T08:19:56;95974.19;;;14.73;64.54
25130;BME280;13308;50.860;13.664;2023-03-23T08:22:35;95973.84;;;14.80;64.10
25130;BME280;13308;50.860;13.664;2023-03-23T08:25:14;95969.25;;;14.77;63.99
25130;BME280;13308;50.860;13.664;2023-03-23T08:28:14;95979.06;;;14.87;64.07
25130;BME280;13308;50.860;13.664;2023-03-23T08:31:05;95980.81;;;14.85;66.39
25130;BME280;13308;50.860;13.664;2023-03-23T08:33:48;95987.09;;;14.85;64.87
25130;BME280;13308;50.860;13.664;2023-03-23T08:36:28;95971.41;;;14.82;65.40
25130;BME280;13308;50.860;13.664;2023-03-23T08:39:13;95971.56;;;14.79;66.68
25130;BME280;13308;50.860;13.664;2023-03-23T08:41:58;95979.25;;;14.84;65.11
25130;BME280;13308;50.860;13.664;2023-03-23T08:44:42;95977.72;;;14.83;65.85
25130;BME280;13308;50.860;13.664;2023-03-23T08:47:46;95985.88;;;14.95;65.92
25130;BME280;13308;50.860;13.664;2023-03-23T08:50:27;95990.78;;;15.00;65.88
25130;BME280;13308;50.860;13.664;2023-03-23T08:53:05;95971.00;;;15.07;65.53
25130;BME280;13308;50.860;13.664;2023-03-23T08:55:40;95978.44;;;15.01;65.65
25130;BME280;13308;50.860;13.664;2023-03-23T08:58:24;95991.09;;;15.02;65.97
25130;BME280;13308;50.860;13.664;2023-03-23T09:01:14;95988.44;;;15.08;65.65
25130;BME280;13308;50.860;13.664;2023-03-23T09:03:43;95980.88;;;15.08;66.23
25130;BME280;13308;50.860;13.664;2023-03-23T09:06:38;95980.41;;;15.10;66.02
25130;BME280;13308;50.860;13.664;2023-03-23T09:09:04;95985.81;;;15.04;66.88
25130;BME280;13308;50.860;13.664;2023-03-23T09:11:35;95992.44;;;15.07;66.49
25130;BME280;13308;50.860;13.664;2023-03-23T09:14:02;95990.44;;;15.07;67.69
25130;BME280;13308;50.860;13.664;2023-03-23T09:16:28;95981.78;;;15.14;66.25
25130;BME280;13308;50.860;13.664;2023-03-23T09:18:54;95994.25;;;15.19;65.97
25130;BME280;13308;50.860;13.664;2023-03-23T09:21:20;95991.94;;;15.26;67.48
25130;BME280;13308;50.860;13.664;2023-03-23T09:23:46;95990.38;;;15.34;67.59
25130;BME280;13308;50.860;13.664;2023-03-23T09:26:13;95997.94;;;15.25;65.89
25130;BME280;13308;50.860;13.664;2023-03-23T09:28:39;95998.91;;;15.22;66.56
25130;BME280;13308;50.860;13.664;2023-03-23T09:31:05;96006.41;;;15.39;68.57
25130;BME280;13308;50.860;13.664;2023-03-23T09:33:30;96010.41;;;15.29;68.75
25130;BME280;13308;50.860;13.664;2023-03-23T09:35:58;96006.78;;;15.14;69.49
25130;BME280;13308;50.860;13.664;2023-03-23T09:38:24;96012.97;;;15.09;71.54
25130;BME280;13308;50.860;13.664;2023-03-23T09:44:03;96017.03;;;14.90;74.39
25130;BME280;13308;50.860;13.664;2023-03-23T09:46:56;96022.91;;;14.83;74.42
25130;BME280;13308;50.860;13.664;2023-03-23T09:49:29;96018.88;;;14.75;76.52
25130;BME280;13308;50.860;13.664;2023-03-23T09:52:02;96019.06;;;14.72;76.57
25130;BME280;13308;50.860;13.664;2023-03-23T09:54:33;96010.25;;;14.73;77.95
25130;BME280;13308;50.860;13.664;2023-03-23T09:57:00;96011.19;;;14.88;76.97
25130;BME280;13308;50.860;13.664;2023-03-23T09:59:35;96009.31;;;14.85;77.89
25130;BME280;13308;50.860;13.664;2023-03-23T10:02:13;96017.03;;;14.81;79.02
25130;BME280;13308;50.860;13.664;2023-03-23T10:04:50;96012.13;;;14.67;81.52
25130;BME280;13308;50.860;13.664;2023-03-23T10:07:19;96001.50;;;14.48;82.30
25130;BME280;13308;50.860;13.664;2023-03-23T10:09:47;95997.06;;;14.23;82.81
25130;BME280;13308;50.860;13.664;2023-03-23T10:15:09;96000.56;;;14.15;82.77
25130;BME280;13308;50.860;13.664;2023-03-23T10:17:45;96011.47;;;14.09;82.93
25130;BME280;13308;50.860;13.664;2023-03-23T10:22:40;96008.41;;;14.16;82.37
25130;BME280;13308;50.860;13.664;2023-03-23T10:25:15;96001.50;;;14.21;83.01
25130;BME280;13308;50.860;13.664;2023-03-23T10:27:50;96012.75;;;14.26;82.20
25130;BME280;13308;50.860;13.664;2023-03-23T10:30:23;96012.44;;;14.33;80.28
25130;BME280;13308;50.860;13.664;2023-03-23T10:35:47;96011.22;;;14.43;81.50
25130;BME280;13308;50.860;13.664;2023-03-23T10:38:19;96013.38;;;14.48;83.01
25130;BME280;13308;50.860;13.664;2023-03-23T10:40:50;96005.34;;;14.50;81.62
25130;BME280;13308;50.860;13.664;2023-03-23T10:43:18;96005.66;;;14.61;81.66
25130;BME280;13308;50.860;13.664;2023-03-23T10:45:45;96006.75;;;14.73;81.91
25130;BME280;13308;50.860;13.664;2023-03-23T10:48:19;95997.47;;;14.76;79.19
25130;BME280;13308;50.860;13.664;2023-03-23T10:50:50;95992.53;;;14.71;80.23
25130;BME280;13308;50.860;13.664;2023-03-23T10:53:21;95991.41;;;14.86;80.49
25130;BME280;13308;50.860;13.664;2023-03-23T10:55:49;95993.69;;;15.15;80.96
25130;BME280;13308;50.860;13.664;2023-03-23T10:58:31;95986.50;;;15.32;80.52
25130;BME280;13308;50.860;13.664;2023-03-23T11:01:03;95992.22;;;15.28;81.18
25130;BME280;13308;50.860;13.664;2023-03-23T11:03:43;95985.69;;;15.49;81.27
25130;BME280;13308;50.860;13.664;2023-03-23T11:06:12;95999.94;;;15.42;80.03
25130;BME280;13308;50.860;13.664;2023-03-23T11:09:01;95990.44;;;15.58;79.09
25130;BME280;13308;50.860;13.664;2023-03-23T11:12:04;96001.38;;;15.61;79.80
25130;BME280;13308;50.860;13.664;2023-03-23T11:14:32;96003.66;;;15.30;76.96
25130;BME280;13308;50.860;13.664;2023-03-23T11:17:03;96002.41;;;15.31;77.54
25130;BME280;13308;50.860;13.664;2023-03-23T11:19:32;96019.59;;;15.21;78.18
25130;BME280;13308;50.860;13.664;2023-03-23T11:24:34;96021.25;;;15.27;77.13
25130;BME280;13308;50.860;13.664;2023-03-23T11:27:01;96030.22;;;15.22;76.56
25130;BME280;13308;50.860;13.664;2023-03-23T11:29:30;96023.41;;;15.23;77.08
25130;BME280;13308;50.860;13.664;2023-03-23T11:34:41;96034.22;;;15.30;77.55
25130;BME280;13308;50.860;13.664;2023-03-23T11:37:22;96032.06;;;15.16;76.98
25130;BME280;13308;50.860;13.664;2023-03-23T11:39:59;96031.44;;;15.21;77.45
25130;BME280;13308;50.860;13.664;2023-03-23T11:42:44;96037.03;;;15.12;76.53
25130;BME280;13308;50.860;13.664;2023-03-23T11:45:18;96036.91;;;14.89;77.83
25130;BME280;13308;50.860;13.664;2023-03-23T11:47:54;96033.09;;;14.77;79.99
25130;BME280;13308;50.860;13.664;2023-03-23T11:50:33;96036.81;;;14.65;82.41
25130;BME280;13308;50.860;13.664;2023-03-23T11:55:52;96042.97;;;14.33;88.13
25130;BME280;13308;50.860;13.664;2023-03-23T11:58:20;96058.06;;;14.23;88.99
25130;BME280;13308;50.860;13.664;2023-03-23T12:00:56;96053.41;;;14.11;90.46
25130;BME280;13308;50.860;13.664;2023-03-23T12:03:49;96049.66;;;13.96;91.08
25130;BME280;13308;50.860;13.664;2023-03-23T12:09:20;96058.72;;;13.88;90.88
25130;BME280;13308;50.860;13.664;2023-03-23T12:12:26;96048.56;;;13.85;91.21
25130;BME280;13308;50.860;13.664;2023-03-23T12:15:11;96041.34;;;13.87;90.80
25130;BME280;13308;50.860;13.664;2023-03-23T12:17:53;96044.16;;;14.05;91.80
25130;BME280;13308;50.860;13.664;2023-03-23T12:23:40;96042.97;;;14.33;90.78
25130;BME280;13308;50.860;13.664;2023-03-23T12:44:41;95989.31;;;14.54;88.20
25130;BME280;13308;50.860;13.664;2023-03-23T12:47:26;96011.81;;;14.56;87.23
25130;BME280;13308;50.860;13.664;2023-03-23T12:50:05;95996.72;;;14.57;85.71
25130;BME280;13308;50.860;13.664;2023-03-23T12:55:44;96012.72;;;14.80;84.60
25130;BME280;13308;50.860;13.664;2023-03-23T12:58:23;96012.38;;;14.87;83.39
25130;BME280;13308;50.860;13.664;2023-03-23T13:00:56;96000.38;;;14.90;81.59
25130;BME280;13308;50.860;13.664;2023-03-23T13:03:30;96004.94;;;15.11;81.36
25130;BME280;13308;50.860;13.664;2023-03-23T13:06:09;96016.38;;;15.04;80.37
25130;BME280;13308;50.860;13.664;2023-03-23T13:08:58;96007.13;;;14.98;79.72
25130;BME280;13308;50.860;13.664;2023-03-23T13:11:33;96015.31;;;14.93;79.24
25130;BME280;13308;50.860;13.664;2023-03-23T13:16:56;96014.56;;;14.74;79.36
25130;BME280;13308;50.860;13.664;2023-03-23T13:22:35;96012.41;;;14.69;77.68
25130;BME280;13308;50.860;13.664;2023-03-23T13:25:08;96014.91;;;14.67;78.84
25130;BME280;13308;50.860;13.664;2023-03-23T13:27:38;96010.75;;;14.63;78.99
25130;BME280;13308;50.860;13.664;2023-03-23T13:30:04;96011.84;;;14.65;79.97
25130;BME280;13308;50.860;13.664;2023-03-23T13:32:42;96014.91;;;14.67;77.14
25130;BME280;13308;50.860;13.664;2023-03-23T13:35:14;96015.69;;;14.59;78.72
25130;BME280;13308;50.860;13.664;2023-03-23T13:37:45;96020.63;;;14.64;78.43
25130;BME280;13308;50.860;13.664;2023-03-23T13:40:24;96010.56;;;14.75;77.48
25130;BME280;13308;50.860;13.664;2023-03-23T13:42:56;96000.09;;;14.70;78.19
25130;BME280;13308;50.860;13.664;2023-03-23T13:48:17;96004.41;;;14.62;76.64
25130;BME280;13308;50.860;13.664;2023-03-23T13:53:44;95975.44;;;14.63;78.37
25130;BME280;13308;50.860;13.664;2023-03-23T13:58:52;95982.66;;;14.61;77.82
25130;BME280;13308;50.860;13.664;2023-03-23T14:01:37;95988.84;;;14.65;78.75
25130;BME280;13308;50.860;13.664;2023-03-23T14:04:06;95979.72;;;14.73;78.16
25130;BME280;13308;50.860;13.664;2023-03-23T14:06:35;95979.88;;;14.79;78.04
25130;BME280;13308;50.860;13.664;2023-03-23T14:09:16;95985.28;;;14.73;77.80
25130;BME280;13308;50.860;13.664;2023-03-23T14:11:57;95976.03;;;14.76;78.70
25130;BME280;13308;50.860;13.664;2023-03-23T14:14:27;95963.81;;;14.83;77.16
25130;BME280;13308;50.860;13.664;2023-03-23T14:17:14;95963.69;;;14.77;77.70
25130;BME280;13308;50.860;13.664;2023-03-23T14:19:42;95955.31;;;14.86;77.82
25130;BME280;13308;50.860;13.664;2023-03-23T14:22:24;95959.00;;;15.01;76.04
25130;BME280;13308;50.860;13.664;2023-03-23T14:24:50;95950.31;;;15.08;75.37
25130;BME280;13308;50.860;13.664;2023-03-23T14:27:20;95949.47;;;15.35;74.67
25130;BME280;13308;50.860;13.664;2023-03-23T14:29:46;95954.56;;;15.36;74.11
25130;BME280;13308;50.860;13.664;2023-03-23T14:32:23;95955.56;;;15.48;73.49
25130;BME280;13308;50.860;13.664;2023-03-23T14:34:51;95974.84;;;15.51;73.42
25130;BME280;13308;50.860;13.664;2023-03-23T14:37:17;95966.25;;;15.40;73.25
25130;BME280;13308;50.860;13.664;2023-03-23T14:39:48;95963.06;;;15.65;72.66
25130;BME280;13308;50.860;13.664;2023-03-23T14:42:16;95969.81;;;15.73;73.00
25130;BME280;13308;50.860;13.664;2023-03-23T14:44:47;95970.22;;;16.04;71.66
25130;BME280;13308;50.860;13.664;2023-03-23T14:47:24;95975.53;;;15.93;71.36
25130;BME280;13308;50.860;13.664;2023-03-23T14:49:59;95969.94;;;16.78;68.61
25130;BME280;13308;50.860;13.664;2023-03-23T14:52:29;95973.66;;;16.90;67.22
25130;BME280;13308;50.860;13.664;2023-03-23T14:55:14;95968.19;;;16.95;67.57
25130;BME280;13308;50.860;13.664;2023-03-23T14:57:41;95977.22;;;16.61;67.58
25130;BME280;13308;50.860;13.664;2023-03-23T15:00:20;95965.31;;;16.90;67.75
25130;BME280;13308;50.860;13.664;2023-03-23T15:02:49;95981.25;;;17.18;66.92
25130;BME280;13308;50.860;13.664;2023-03-23T15:05:21;95976.84;;;16.97;67.83
25130;BME280;13308;50.860;13.664;2023-03-23T15:07:53;95966.28;;;16.34;69.07
25130;BME280;13308;50.860;13.664;2023-03-23T15:10:21;95988.63;;;16.25;70.83
25130;BME280;13308;50.860;13.664;2023-03-23T15:12:48;95983.97;;;15.84;71.52
25130;BME280;13308;50.860;13.664;2023-03-23T15:15:32;95977.72;;;15.66;72.05
25130;BME280;13308;50.860;13.664;2023-03-23T15:17:59;95985.69;;;15.49;72.47
25130;BME280;13308;50.860;13.664;2023-03-23T15:20:31;95999.03;;;15.36;73.20
25130;BME280;13308;50.860;13.664;2023-03-23T15:23:05;95983.31;;;15.15;74.00
25130;BME280;13308;50.860;13.664;2023-03-23T15:25:33;95977.94;;;15.12;74.42
25130;BME280;13308;50.860;13.664;2023-03-23T15:28:20;95971.94;;;15.04;75.21
25130;BME280;13308;50.860;13.664;2023-03-23T15:30:52;95970.69;;;15.05;76.09
25130;BME280;13308;50.860;13.664;2023-03-23T15:33:18;95986.44;;;14.99;75.86
25130;BME280;13308;50.860;13.664;2023-03-23T15:35:49;95985.53;;;14.93;76.12
25130;BME280;13308;50.860;13.664;2023-03-23T15:38:22;95999.75;;;14.86;76.40
25130;BME280;13308;50.860;13.664;2023-03-23T15:40:50;95997.31;;;14.79;77.25
25130;BME280;13308;50.860;13.664;2023-03-23T15:43:27;96000.84;;;14.71;77.62
25130;BME280;13308;50.860;13.664;2023-03-23T15:46:04;96006.75;;;14.73;78.27
25130;BME280;13308;50.860;13.664;2023-03-23T15:48:32;96009.03;;;14.74;76.95
25130;BME280;13308;50.860;13.664;2023-03-23T15:50:59;96008.56;;;14.67;76.34
25130;BME280;13308;50.860;13.664;2023-03-23T15:53:36;96009.34;;;14.67;76.35
25130;BME280;13308;50.860;13.664;2023-03-23T15:56:04;96018.63;;;14.64;75.32
25130;BME280;13308;50.860;13.664;2023-03-23T15:58:31;96031.25;;;14.56;75.28
25130;BME280;13308;50.860;13.664;2023-03-23T16:00:57;96019.56;;;14.52;75.44
25130;BME280;13308;50.860;13.664;2023-03-23T16:03:34;96026.81;;;14.50;75.67
25130;BME280;13308;50.860;13.664;2023-03-23T16:06:01;96036.66;;;14.42;75.25
25130;BME280;13308;50.860;13.664;2023-03-23T16:08:27;96038.97;;;14.43;74.64
25130;BME280;13308;50.860;13.664;2023-03-23T16:10:53;96040.66;;;14.41;75.82
25130;BME280;13308;50.860;13.664;2023-03-23T16:13:18;96040.50;;;14.35;76.02
25130;BME280;13308;50.860;13.664;2023-03-23T16:15:45;96037.41;;;14.33;76.40
25130;BME280;13308;50.860;13.664;2023-03-23T16:18:19;96033.09;;;14.32;76.45
25130;BME280;13308;50.860;13.664;2023-03-23T16:20:46;96030.03;;;14.30;76.89
25130;BME280;13308;50.860;13.664;2023-03-23T16:23:12;96037.41;;;14.24;78.28
25130;BME280;13308;50.860;13.664;2023-03-23T16:25:37;96031.09;;;14.24;77.74
25130;BME280;13308;50.860;13.664;2023-03-23T16:28:03;96048.22;;;14.22;77.69
25130;BME280;13308;50.860;13.664;2023-03-23T16:30:32;96043.69;;;14.16;78.25
25130;BME280;13308;50.860;13.664;2023-03-23T16:32:58;96042.75;;;14.10;78.22
25130;BME280;13308;50.860;13.664;2023-03-23T16:35:23;96054.31;;;13.99;79.18
25130;BME280;13308;50.860;13.664;2023-03-23T16:37:51;96059.22;;;13.95;80.36
25130;BME280;13308;50.860;13.664;2023-03-23T16:40:18;96061.50;;;13.79;83.79
25130;BME280;13308;50.860;13.664;2023-03-23T16:42:43;96065.00;;;13.70;85.03
25130;BME280;13308;50.860;13.664;2023-03-23T16:45:10;96061.00;;;13.71;84.47
25130;BME280;13308;50.860;13.664;2023-03-23T16:47:35;96056.97;;;13.63;85.11
25130;BME280;13308;50.860;13.664;2023-03-23T16:50:02;96072.38;;;13.64;85.05
25130;BME280;13308;50.860;13.664;2023-03-23T16:52:27;96068.00;;;13.54;85.93
25130;BME280;13308;50.860;13.664;2023-03-23T16:54:52;96068.59;;;13.49;86.12
25130;BME280;13308;50.860;13.664;2023-03-23T16:57:18;96057.22;;;13.47;86.49
25130;BME280;13308;50.860;13.664;2023-03-23T16:59:44;96062.09;;;13.34;87.84
25130;BME280;13308;50.860;13.664;2023-03-23T17:02:10;96053.44;;;13.32;88.19
25130;BME280;13308;50.860;13.664;2023-03-23T17:04:37;96060.34;;;13.28;88.88
25130;BME280;13308;50.860;13.664;2023-03-23T17:07:06;96056.47;;;13.25;88.89
25130;BME280;13308;50.860;13.664;2023-03-23T17:09:32;96048.75;;;13.20;89.57
25130;BME280;13308;50.860;13.664;2023-03-23T17:11:57;96054.63;;;13.22;89.98
25130;BME280;13308;50.860;13.664;2023-03-23T17:14:23;96053.81;;;13.13;90.28
25130;BME280;13308;50.860;13.664;2023-03-23T17:16:48;96057.16;;;13.08;90.70
25130;BME280;13308;50.860;13.664;2023-03-23T17:19:13;96056.97;;;13.02;91.60
25130;BME280;13308;50.860;13.664;2023-03-23T17:21:39;96065.94;;;12.94;92.23
25130;BME280;13308;50.860;13.664;2023-03-23T17:24:06;96075.97;;;12.91;92.52
25130;BME280;13308;50.860;13.664;2023-03-23T17:26:31;96090.38;;;12.86;92.80
25130;BME280;13308;50.860;13.664;2023-03-23T17:28:56;96084.19;;;12.82;93.34
25130;BME280;13308;50.860;13.664;2023-03-23T17:31:22;96095.25;;;12.82;93.81
25130;BME280;13308;50.860;13.664;2023-03-23T17:33:47;96093.06;;;12.77;94.46
25130;BME280;13308;50.860;13.664;2023-03-23T17:36:12;96083.63;;;12.87;94.08
25130;BME280;13308;50.860;13.664;2023-03-23T17:38:38;96075.59;;;13.02;92.94
25130;BME280;13308;50.860;13.664;2023-03-23T17:41:03;96088.56;;;12.92;92.58
25130;BME280;13308;50.860;13.664;2023-03-23T17:43:32;96085.91;;;12.67;94.60
25130;BME280;13308;50.860;13.664;2023-03-23T17:45:57;96076.31;;;12.59;95.05
25130;BME280;13308;50.860;13.664;2023-03-23T17:48:23;96076.59;;;12.52;95.63
25130;BME280;13308;50.860;13.664;2023-03-23T17:50:48;96083.38;;;12.39;96.46
25130;BME280;13308;50.860;13.664;2023-03-23T17:53:17;96078.88;;;12.32;96.65
25130;BME280;13308;50.860;13.664;2023-03-23T17:55:43;96079.75;;;12.29;97.03
25130;BME280;13308;50.860;13.664;2023-03-23T17:58:09;96069.59;;;12.26;97.10
25130;BME280;13308;50.860;13.664;2023-03-23T18:00:34;96084.00;;;12.21;97.23
25130;BME280;13308;50.860;13.664;2023-03-23T18:03:00;96080.88;;;12.19;97.75
25130;BME280;13308;50.860;13.664;2023-03-23T18:05:25;96086.41;;;12.19;97.52
25130;BME280;13308;50.860;13.664;2023-03-23T18:07:52;96076.94;;;12.20;97.40
25130;BME280;13308;50.860;13.664;2023-03-23T18:10:18;96078.59;;;12.18;97.32
25130;BME280;13308;50.860;13.664;2023-03-23T18:12:43;96076.25;;;12.16;97.17
25130;BME280;13308;50.860;13.664;2023-03-23T18:15:09;96090.66;;;12.11;97.32
25130;BME280;13308;50.860;13.664;2023-03-23T18:17:35;96086.03;;;12.08;97.37
25130;BME280;13308;50.860;13.664;2023-03-23T18:20:01;96084.56;;;12.04;97.35
25130;BME280;13308;50.860;13.664;2023-03-23T18:22:27;96090.75;;;12.08;97.36
25130;BME280;13308;50.860;13.664;2023-03-23T18:24:52;96089.28;;;12.16;96.88
25130;BME280;13308;50.860;13.664;2023-03-23T18:27:18;96089.34;;;12.03;97.23
25130;BME280;13308;50.860;13.664;2023-03-23T18:29:43;96090.34;;;11.97;97.66
25130;BME280;13308;50.860;13.664;2023-03-23T18:32:09;96086.47;;;11.94;97.96
25130;BME280;13308;50.860;13.664;2023-03-23T18:34:34;96087.03;;;11.89;97.92
25130;BME280;13308;50.860;13.664;2023-03-23T18:37:01;96091.88;;;11.98;97.48
25130;BME280;13308;50.860;13.664;2023-03-23T18:39:26;96094.44;;;11.92;97.73
25130;BME280;13308;50.860;13.664;2023-03-23T18:41:52;96093.22;;;11.93;97.82
25130;BME280;13308;50.860;13.664;2023-03-23T18:44:17;96088.91;;;11.92;97.32
25130;BME280;13308;50.860;13.664;2023-03-23T18:46:42;96078.75;;;11.89;97.73
25130;BME280;13308;50.860;13.664;2023-03-23T18:49:07;96087.63;;;11.84;98.00
25130;BME280;13308;50.860;13.664;2023-03-23T18:51:33;96085.16;;;11.86;97.99
25130;BME280;13308;50.860;13.664;2023-03-23T18:53:58;96082.97;;;11.81;98.05
25130;BME280;13308;50.860;13.664;2023-03-23T18:56:24;96083.44;;;11.67;98.92
25130;BME280;13308;50.860;13.664;2023-03-23T18:58:51;96069.50;;;11.58;99.34
25130;BME280;13308;50.860;13.664;2023-03-23T19:01:17;96078.13;;;11.60;100.00
25130;BME280;13308;50.860;13.664;2023-03-23T19:03:43;96075.69;;;11.62;100.00
25130;BME280;13308;50.860;13.664;2023-03-23T19:06:18;96077.44;;;11.56;99.81
25130;BME280;13308;50.860;13.664;2023-03-23T19:08:45;96074.59;;;11.60;100.00
25130;BME280;13308;50.860;13.664;2023-03-23T19:11:10;96071.03;;;11.59;100.00
25130;BME280;13308;50.860;13.664;2023-03-23T19:13:36;96063.75;;;11.65;99.70
25130;BME280;13308;50.860;13.664;2023-03-23T19:16:02;96064.53;;;11.66;99.68
25130;BME280;13308;50.860;13.664;2023-03-23T19:18:28;96064.09;;;11.67;99.09
25130;BME280;13308;50.860;13.664;2023-03-23T19:20:53;96061.56;;;11.60;99.65
25130;BME280;13308;50.860;13.664;2023-03-23T19:23:20;96074.59;;;11.60;99.48
25130;BME280;13308;50.860;13.664;2023-03-23T19:25:45;96060.19;;;11.52;99.54
25130;BME280;13308;50.860;13.664;2023-03-23T19:28:12;96053.13;;;11.51;99.82
25130;BME280;13308;50.860;13.664;2023-03-23T19:30:43;96058.44;;;11.58;99.64
25130;BME280;13308;50.860;13.664;2023-03-23T19:33:10;96063.75;;;11.65;99.16
25130;BME280;13308;50.860;13.664;2023-03-23T19:35:35;96059.66;;;11.70;99.08
25130;BME280;13308;50.860;13.664;2023-03-23T19:38:01;96057.28;;;11.93;97.93
25130;BME280;13308;50.860;13.664;2023-03-23T19:40:26;96066.81;;;11.92;97.57
25130;BME280;13308;50.860;13.664;2023-03-23T19:42:51;96058.94;;;12.03;96.84
25130;BME280;13308;50.860;13.664;2023-03-23T19:45:17;96065.91;;;11.95;97.03
25130;BME280;13308;50.860;13.664;2023-03-23T19:47:42;96054.97;;;12.04;96.82
